Time;durP1;ratioP1;P1;durP2;ratioP2;P2;SDS_P1;SDS_P2;PMS_P1;PMS_P2;Temp;Humidity;BMP_temperature;BMP_pressure;BME280_temperature;BME280_humidity;BME280_pressure;Samples;Min_cycle;Max_cycle;Signal;HPM_P1;HPM_P2
2022/10/04 00:01:39;;;;;;;15.40;7.03;;;12.20;99.90;;;;;;5033920;28;20077;-62
2022/10/04 00:04:15;;;;;;;15.55;6.43;;;12.40;99.90;;;;;;5035249;28;20487;-62
2022/10/04 00:06:56;;;;;;;23.40;7.32;;;12.30;99.90;;;;;;5034104;28;20045;-63
2022/10/04 00:09:26;;;;;;;20.15;8.55;;;12.30;99.90;;;;;;5033961;28;20112;-63
2022/10/04 00:11:54;;;;;;;16.35;6.70;;;12.40;99.90;;;;;;5033524;28;20113;-63
2022/10/04 00:14:26;;;;;;;17.05;7.40;;;12.40;99.90;;;;;;5034860;28;20072;-62
2022/10/04 00:16:52;;;;;;;19.33;8.40;;;12.50;99.90;;;;;;5035005;28;20450;-62
2022/10/04 00:19:18;;;;;;;21.55;8.05;;;12.40;99.90;;;;;;5035102;28;20033;-62
2022/10/04 00:21:53;;;;;;;14.50;6.88;;;12.20;99.90;;;;;;5033519;28;20087;-63
2022/10/04 00:24:36;;;;;;;21.85;7.28;;;12.40;99.90;;;;;;5032970;28;20484;-63
2022/10/04 00:27:23;;;;;;;17.15;7.20;;;12.40;99.90;;;;;;5021004;28;20030;-62
2022/10/04 00:30:14;;;;;;;16.85;7.70;;;12.20;99.90;;;;;;5034349;28;20030;-63
2022/10/04 00:32:40;;;;;;;14.57;7.57;;;12.40;99.90;;;;;;5032982;28;20045;-63
2022/10/04 00:35:38;;;;;;;19.13;7.43;;;12.20;99.90;;;;;;5033840;28;20034;-62
2022/10/04 00:38:06;;;;;;;18.65;8.02;;;12.40;99.90;;;;;;5000612;28;20111;-63
2022/10/04 00:40:45;;;;;;;17.83;7.82;;;12.30;99.90;;;;;;5033059;28;20060;-63
2022/10/04 00:43:19;;;;;;;18.50;7.82;;;12.20;99.90;;;;;;5033906;28;20049;-64
2022/10/04 00:45:50;;;;;;;21.45;7.05;;;12.30;99.90;;;;;;5032982;28;20381;-63
2022/10/04 00:48:40;;;;;;;16.98;7.43;;;12.20;99.90;;;;;;5034304;28;20045;-64
2022/10/04 00:51:29;;;;;;;17.65;7.30;;;12.30;99.90;;;;;;5032741;28;20041;-63
2022/10/04 00:54:02;;;;;;;15.20;7.55;;;12.30;99.90;;;;;;5032740;28;20495;-63
2022/10/04 00:56:35;;;;;;;19.75;8.27;;;12.30;99.90;;;;;;5034078;28;20038;-63
2022/10/04 00:59:12;;;;;;;16.58;8.27;;;12.30;99.90;;;;;;5032943;28;20434;-63
2022/10/04 01:01:38;;;;;;;14.13;8.05;;;12.20;99.90;;;;;;5032883;28;20487;-63
2022/10/04 01:04:12;;;;;;;16.30;7.28;;;12.30;99.90;;;;;;5033896;28;20088;-63
2022/10/04 01:06:39;;;;;;;17.48;7.95;;;12.30;99.90;;;;;;5032955;28;20107;-63
2022/10/04 01:09:08;;;;;;;12.23;7.55;;;12.30;99.90;;;;;;5033921;28;20041;-64
2022/10/04 01:11:44;;;;;;;12.07;7.63;;;12.20;99.90;;;;;;5018824;28;20045;-63
2022/10/04 01:14:30;;;;;;;19.27;8.50;;;12.10;99.90;;;;;;5032286;28;20120;-64
2022/10/04 01:16:56;;;;;;;16.17;7.70;;;12.10;99.90;;;;;;5033920;28;20041;-64
2022/10/04 01:19:21;;;;;;;17.20;8.10;;;12.20;99.90;;;;;;5032632;28;20622;-64
2022/10/04 01:22:06;;;;;;;19.60;7.88;;;12.20;99.90;;;;;;5032657;28;20120;-63
2022/10/04 01:24:39;;;;;;;18.17;8.00;;;12.20;99.90;;;;;;5033440;28;20041;-63
2022/10/04 01:27:30;;;;;;;15.40;7.75;;;12.20;99.90;;;;;;5033474;28;20553;-63
2022/10/04 01:29:56;;;;;;;15.63;8.32;;;12.20;99.90;;;;;;5032391;28;20041;-64
2022/10/04 01:32:22;;;;;;;18.90;8.07;;;12.10;99.90;;;;;;5032169;28;20523;-63
2022/10/04 01:34:47;;;;;;;16.60;7.32;;;12.10;99.90;;;;;;5033282;28;20083;-62
2022/10/04 01:37:13;;;;;;;14.70;7.20;;;;;;;;;;5033269;28;20064;-64
2022/10/04 01:39:39;;;;;;;21.52;7.72;;;11.70;99.90;;;;;;5033518;28;20042;-63
2022/10/04 01:42:22;;;;;;;14.82;6.93;;;12.20;99.90;;;;;;5031864;28;20045;-63
2022/10/04 01:44:47;;;;;;;25.13;7.18;;;12.20;99.90;;;;;;5033135;28;20570;-62
2022/10/04 01:47:54;;;;;;;13.27;6.60;;;12.30;99.90;;;;;;5033060;28;20124;-63
2022/10/04 01:50:34;;;;;;;12.43;6.47;;;12.20;99.90;;;;;;5033219;28;20503;-63
2022/10/04 01:53:25;;;;;;;20.17;7.35;;;12.20;99.90;;;;;;5018833;28;20117;-62
2022/10/04 01:55:55;;;;;;;12.55;6.65;;;12.10;99.90;;;;;;5033030;28;20875;-63
2022/10/04 01:58:29;;;;;;;16.75;6.43;;;12.10;99.90;;;;;;5033243;28;20084;-63
2022/10/04 02:01:03;;;;;;;10.38;6.15;;;12.20;99.90;;;;;;5033272;28;20115;-63
2022/10/04 02:03:44;;;;;;;15.05;5.65;;;12.10;99.90;;;;;;5032892;28;20080;-63
2022/10/04 02:06:12;;;;;;;16.85;6.65;;;12.20;99.90;;;;;;5032832;28;20095;-62
2022/10/04 02:08:44;;;;;;;23.40;6.88;;;12.00;99.90;;;;;;5025952;28;20042;-63
2022/10/04 02:11:15;;;;;;;15.52;6.78;;;12.00;99.90;;;;;;5044655;28;20075;-63
2022/10/04 02:13:42;;;;;;;19.70;6.47;;;11.90;99.90;;;;;;5032698;28;20037;-63
2022/10/04 02:16:10;;;;;;;13.90;6.10;;;12.10;99.90;;;;;;5032614;28;20495;-63
2022/10/04 02:18:37;;;;;;;21.02;6.53;;;12.10;99.90;;;;;;5031479;28;20120;-63
2022/10/04 02:21:05;;;;;;;13.73;6.30;;;11.90;99.90;;;;;;5032672;28;20490;-63
2022/10/04 02:23:32;;;;;;;14.10;6.55;;;11.80;99.90;;;;;;5033164;28;20117;-63
2022/10/04 02:25:58;;;;;;;22.27;6.90;;;11.80;99.90;;;;;;5032864;28;20492;-63
2022/10/04 02:28:24;;;;;;;18.45;6.65;;;11.80;99.90;;;;;;5031424;28;20056;-63
2022/10/04 02:33:45;;;;;;;19.80;8.30;;;11.70;99.90;;;;;;5032548;28;20053;-63
2022/10/04 02:36:12;;;;;;;13.27;6.95;;;11.50;99.90;;;;;;5019435;28;20543;-63
2022/10/04 02:39:00;;;;;;;15.38;6.50;;;11.60;99.90;;;;;;5032653;28;20081;-63
2022/10/04 02:41:31;;;;;;;20.40;6.93;;;11.60;99.90;;;;;;5010145;28;20046;-63
2022/10/04 02:44:02;;;;;;;14.65;6.38;;;11.60;99.90;;;;;;5030837;28;20095;-64
2022/10/04 02:46:51;;;;;;;11.15;6.50;;;11.50;99.90;;;;;;5031483;28;20041;-63
2022/10/04 02:49:32;;;;;;;21.48;7.55;;;11.60;99.90;;;;;;5031941;28;20052;-63
2022/10/04 02:52:04;;;;;;;16.77;7.15;;;11.50;99.90;;;;;;5032774;28;20100;-63
2022/10/04 02:54:52;;;;;;;14.38;7.88;;;11.40;99.90;;;;;;5032734;28;20041;-63
2022/10/04 02:57:21;;;;;;;15.63;7.45;;;11.50;99.90;;;;;;5032633;28;20092;-63
2022/10/04 02:59:47;;;;;;;15.25;8.25;;;11.50;99.90;;;;;;5031341;28;20046;-63
2022/10/04 03:02:28;;;;;;;12.88;7.57;;;11.60;99.90;;;;;;5031322;28;20243;-63
2022/10/04 03:05:03;;;;;;;16.27;8.52;;;11.60;99.90;;;;;;5033820;28;20116;-63
2022/10/04 03:07:32;;;;;;;15.45;9.05;;;11.60;99.90;;;;;;5036275;28;20064;-63
2022/10/04 03:09:59;;;;;;;17.98;9.18;;;11.70;99.90;;;;;;5036217;28;20080;-63
2022/10/04 03:12:24;;;;;;;22.70;10.48;;;11.70;99.90;;;;;;5036019;28;20049;-62
2022/10/04 03:14:53;;;;;;;16.58;9.07;;;11.60;99.90;;;;;;5035692;28;20069;-63
2022/10/04 03:17:19;;;;;;;17.33;8.77;;;11.70;99.90;;;;;;5035796;28;20061;-62
2022/10/04 03:19:48;;;;;;;24.85;9.82;;;11.50;99.90;;;;;;5036112;28;20396;-63
2022/10/04 03:22:15;;;;;;;20.20;10.00;;;11.50;99.90;;;;;;5035964;28;20049;-63
2022/10/04 03:24:46;;;;;;;19.25;10.10;;;11.50;99.90;;;;;;5035908;28;20048;-63
2022/10/04 03:27:16;;;;;;;14.60;9.27;;;11.40;99.90;;;;;;5034509;28;20587;-63
2022/10/04 03:29:43;;;;;;;23.98;10.48;;;11.50;99.90;;;;;;5035733;28;20442;-63
2022/10/04 03:32:13;;;;;;;21.95;11.20;;;11.20;99.90;;;;;;5035788;28;20048;-63
2022/10/04 03:34:40;;;;;;;18.02;10.07;;;11.30;99.90;;;;;;5035895;28;20049;-63
2022/10/04 03:37:10;;;;;;;18.02;9.90;;;11.20;99.90;;;;;;5035580;28;20051;-63
2022/10/04 03:39:46;;;;;;;19.98;10.05;;;11.20;99.90;;;;;;5034557;28;20053;-63
2022/10/04 03:42:21;;;;;;;18.60;10.32;;;11.10;99.90;;;;;;5034106;28;20103;-63
2022/10/04 03:44:50;;;;;;;17.75;10.07;;;11.10;99.90;;;;;;5035456;28;20500;-63
2022/10/04 03:47:31;;;;;;;16.63;10.25;;;11.10;99.90;;;;;;5035381;28;20510;-63
2022/10/04 03:50:03;;;;;;;24.73;10.13;;;11.20;99.90;;;;;;5035314;28;20531;-63
2022/10/04 03:52:33;;;;;;;15.50;10.25;;;11.00;99.90;;;;;;5035071;28;20139;-63
2022/10/04 03:55:02;;;;;;;20.13;10.75;;;11.00;99.90;;;;;;5035172;28;20044;-63
2022/10/04 03:57:29;;;;;;;19.15;10.57;;;10.90;99.90;;;;;;5034896;28;20046;-63
2022/10/04 03:59:56;;;;;;;16.98;10.77;;;11.00;99.90;;;;;;5034933;28;20042;-63
2022/10/04 04:02:24;;;;;;;21.40;10.73;;;11.20;99.90;;;;;;5033312;28;20159;-62
2022/10/04 04:05:20;;;;;;;18.50;10.73;;;11.00;99.90;;;;;;5034615;28;20034;-63
2022/10/04 04:08:11;;;;;;;18.52;10.65;;;10.90;99.90;;;;;;5033409;28;20404;-63
2022/10/04 04:10:45;;;;;;;18.90;10.43;;;10.70;99.90;;;;;;5035361;28;20175;-64
2022/10/04 04:13:24;;;;;;;19.15;11.20;;;10.80;99.90;;;;;;5034830;28;20041;-62
2022/10/04 04:15:50;;;;;;;19.63;10.65;;;10.80;99.90;;;;;;5034353;28;20057;-63
2022/10/04 04:18:20;;;;;;;25.55;11.88;;;10.70;99.90;;;;;;5033535;28;20483;-63
2022/10/04 04:20:50;;;;;;;20.70;11.57;;;10.70;99.90;;;;;;5034989;28;20084;-63
2022/10/04 04:23:42;;;;;;;20.73;11.13;;;10.60;99.90;;;;;;5033345;28;20053;-63
2022/10/04 04:26:19;;;;;;;19.73;11.52;;;10.70;99.90;;;;;;5032612;28;20061;-63
2022/10/04 04:28:53;;;;;;;20.50;11.63;;;10.70;99.90;;;;;;5034714;28;20417;-63
2022/10/04 04:31:28;;;;;;;22.65;11.60;;;10.60;99.90;;;;;;5034720;28;20057;-63
2022/10/04 04:34:00;;;;;;;18.58;10.73;;;10.70;99.90;;;;;;5033251;28;20056;-63
2022/10/04 04:36:28;;;;;;;18.60;11.40;;;10.60;99.90;;;;;;5033486;28;20041;-63
2022/10/04 04:41:52;;;;;;;18.95;11.10;;;10.60;99.90;;;;;;5034491;28;20046;-63
2022/10/04 04:44:19;;;;;;;18.73;11.25;;;10.60;99.90;;;;;;5034590;28;20033;-63
2022/10/04 04:46:46;;;;;;;21.77;11.48;;;10.60;99.90;;;;;;5033401;28;20052;-63
2022/10/04 04:49:14;;;;;;;21.52;11.85;;;10.70;99.90;;;;;;5034011;28;20442;-63
2022/10/04 04:51:48;;;;;;;21.90;11.88;;;10.60;99.90;;;;;;5034476;28;20045;-63
2022/10/04 04:54:15;;;;;;;16.35;11.05;;;10.70;99.90;;;;;;5034320;28;20041;-63
2022/10/04 04:56:42;;;;;;;20.52;10.98;;;10.60;99.90;;;;;;5034447;28;20121;-63
2022/10/04 04:59:08;;;;;;;22.50;12.13;;;10.60;99.90;;;;;;5034275;28;20095;-63
2022/10/04 05:01:40;;;;;;;22.20;11.88;;;10.70;99.90;;;;;;5033984;28;20041;-63
2022/10/04 05:04:11;;;;;;;25.52;12.32;;;10.50;99.90;;;;;;5033937;28;20405;-63
2022/10/04 05:06:41;;;;;;;20.92;12.13;;;10.70;99.90;;;;;;5032904;28;20115;-63
2022/10/04 05:09:29;;;;;;;23.33;10.95;;;10.50;99.90;;;;;;5033875;28;20116;-64
2022/10/04 05:11:57;;;;;;;18.77;10.98;;;;;;;;;;5032563;28;20514;-63
2022/10/04 05:14:23;;;;;;;16.75;11.00;;;10.60;99.90;;;;;;5032523;28;20049;-63
2022/10/04 05:16:51;;;;;;;27.60;12.25;;;10.70;99.90;;;;;;5028988;28;20503;-63
2022/10/04 05:19:30;;;;;;;20.88;11.23;;;10.50;99.90;;;;;;5023808;28;20116;-63
2022/10/04 05:21:57;;;;;;;19.60;11.35;;;;;;;;;;5032361;28;20048;-63
2022/10/04 05:24:33;;;;;;;19.98;11.27;;;10.50;99.90;;;;;;5033674;28;20072;-63
2022/10/04 05:27:12;;;;;;;20.38;12.02;;;10.40;99.90;;;;;;5033378;28;20033;-63
2022/10/04 05:29:40;;;;;;;26.23;14.25;;;10.60;99.90;;;;;;5031472;28;20037;-63
2022/10/04 05:32:31;;;;;;;20.20;12.75;;;10.60;99.90;;;;;;5033554;28;20427;-63
2022/10/04 05:34:58;;;;;;;18.30;11.30;;;10.60;99.90;;;;;;5033473;28;20387;-62
2022/10/04 05:37:52;;;;;;;25.88;11.73;;;10.50;99.90;;;;;;5031993;28;20051;-62
2022/10/04 05:40:31;;;;;;;20.27;12.20;;;10.20;99.90;;;;;;5031953;28;20084;-62
2022/10/04 05:42:58;;;;;;;24.05;12.50;;;10.40;99.90;;;;;;5032148;28;20491;-63
2022/10/04 05:45:29;;;;;;;19.23;12.40;;;10.40;99.90;;;;;;5031857;28;20045;-63
2022/10/04 05:47:56;;;;;;;20.35;11.68;;;10.40;99.90;;;;;;5033490;28;20088;-63
2022/10/04 05:50:48;;;;;;;25.65;12.63;;;10.30;99.90;;;;;;5031831;28;20056;-63
2022/10/04 05:53:28;;;;;;;29.52;12.75;;;10.40;99.90;;;;;;5017799;28;20049;-63
2022/10/04 05:56:40;;;;;;;23.08;14.32;;;10.40;99.90;;;;;;5033362;28;20481;-63
2022/10/04 05:59:20;;;;;;;19.70;12.40;;;10.30;99.90;;;;;;5029042;28;20049;-63
2022/10/04 06:02:08;;;;;;;21.65;13.48;;;10.30;99.90;;;;;;5032939;28;20407;-63
2022/10/04 06:04:54;;;;;;;29.98;14.98;;;10.10;99.90;;;;;;5031617;28;20415;-63
2022/10/04 06:07:36;;;;;;;27.17;14.40;;;10.30;99.90;;;;;;5033241;28;20049;-63
2022/10/04 06:10:38;;;;;;;25.77;14.05;;;10.10;99.90;;;;;;5020035;28;20045;-63
2022/10/04 06:13:24;;;;;;;22.90;13.85;;;10.20;99.90;;;;;;5031764;28;20468;-63
2022/10/04 06:16:01;;;;;;;24.02;14.45;;;10.20;99.90;;;;;;5031471;28;20410;-63
2022/10/04 06:18:29;;;;;;;22.20;14.88;;;10.30;99.90;;;;;;5031491;28;20037;-63
2022/10/04 06:20:58;;;;;;;28.08;15.05;;;10.40;99.90;;;;;;5031603;28;20081;-63
2022/10/04 06:23:26;;;;;;;30.52;15.43;;;10.60;99.90;;;;;;5031479;28;20045;-63
2022/10/04 06:26:01;;;;;;;23.58;14.68;;;10.40;99.90;;;;;;5031455;28;20053;-63
2022/10/04 06:28:30;;;;;;;22.48;14.85;;;10.40;99.90;;;;;;5032951;28;20069;-63
2022/10/04 06:31:36;;;;;;;23.27;14.07;;;10.40;99.90;;;;;;5032711;28;20069;-63
2022/10/04 06:34:05;;;;;;;;;;;10.70;99.90;;;;;;5033056;28;20053;-63
2022/10/04 06:36:39;;;;;;;25.35;15.05;;;10.60;99.90;;;;;;5031490;28;19971;-62
2022/10/04 06:39:14;;;;;;;28.38;15.07;;;10.70;99.90;;;;;;5031697;28;20041;-62
2022/10/04 06:41:54;;;;;;;23.67;14.95;;;10.60;99.90;;;;;;5035308;28;20056;-63
2022/10/04 06:45:10;;;;;;;28.23;15.35;;;10.70;99.90;;;;;;5022492;28;20132;-63
2022/10/04 06:47:54;;;;;;;26.92;15.68;;;10.70;99.90;;;;;;5028934;28;20052;-63
2022/10/04 06:50:33;;;;;;;25.83;15.52;;;10.90;99.90;;;;;;5034779;28;20041;-63
2022/10/04 06:53:08;;;;;;;23.88;14.65;;;11.00;99.90;;;;;;5029273;28;20104;-62
2022/10/04 06:56:06;;;;;;;22.67;13.75;;;11.10;99.90;;;;;;5034062;28;20041;-64
2022/10/04 06:58:52;;;;;;;27.42;16.85;;;11.10;99.90;;;;;;5035498;28;20041;-64
2022/10/04 07:01:33;;;;;;;24.25;14.48;;;11.30;99.90;;;;;;5030726;28;20065;-63
2022/10/04 07:04:19;;;;;;;25.85;15.07;;;11.20;99.90;;;;;;5031298;28;20396;-65
2022/10/04 07:09:58;;;;;;;29.38;15.57;;;11.10;99.90;;;;;;5025792;28;20476;-64
2022/10/04 07:12:25;;;;;;;24.70;14.65;;;;;;;;;;5033390;28;20115;-62
2022/10/04 07:14:58;;;;;;;29.50;16.48;;;11.40;99.90;;;;;;5033404;28;20045;-63
2022/10/04 07:17:30;;;;;;;26.10;15.30;;;;;;;;;;5034952;28;20053;-64
2022/10/04 07:19:58;;;;;;;23.48;16.55;;;11.30;99.90;;;;;;5033176;28;20380;-63
2022/10/04 07:22:24;;;;;;;25.70;15.25;;;;;;;;;;5034120;28;20415;-65
2022/10/04 07:24:50;;;;;;;25.48;15.93;;;11.30;99.90;;;;;;5020160;28;20038;-63
2022/10/04 07:27:44;;;;;;;24.98;15.52;;;11.30;99.90;;;;;;5016146;28;20042;-64
2022/10/04 07:30:16;;;;;;;27.48;15.95;;;11.40;99.90;;;;;;5017675;28;20038;-64
2022/10/04 07:32:44;;;;;;;29.42;15.25;;;11.90;99.90;;;;;;5017767;28;20057;-64
2022/10/04 07:35:11;;;;;;;22.25;16.10;;;;;;;;;;5015293;28;20049;-64
2022/10/04 07:37:52;;;;;;;26.35;15.50;;;12.30;99.90;;;;;;5014254;28;20125;-64
2022/10/04 07:40:28;;;;;;;24.00;14.93;;;12.20;99.90;;;;;;5013986;28;20042;-64
2022/10/04 07:42:59;;;;;;;25.55;15.05;;;12.30;99.90;;;;;;5016584;28;20048;-64
2022/10/04 07:45:28;;;;;;;28.67;14.77;;;12.50;99.90;;;;;;5028096;28;20052;-64
2022/10/04 07:48:08;;;;;;;26.63;14.65;;;12.50;99.90;;;;;;5029248;28;20041;-64
2022/10/04 07:50:56;;;;;;;23.20;14.23;;;12.60;99.90;;;;;;5027337;28;20046;-64
2022/10/04 07:53:33;;;;;;;21.38;13.20;;;12.60;99.90;;;;;;4983676;28;20057;-64
2022/10/04 07:56:07;;;;;;;22.60;13.00;;;12.60;99.90;;;;;;5014588;28;20169;-64
2022/10/04 07:58:38;;;;;;;25.23;13.23;;;12.60;99.90;;;;;;5023305;28;20049;-64
2022/10/04 08:01:04;;;;;;;20.30;13.30;;;;;;;;;;5034149;28;20292;-65
2022/10/04 08:03:58;;;;;;;19.77;12.88;;;12.50;99.90;;;;;;5023435;28;20409;-63
2022/10/04 08:06:38;;;;;;;19.80;13.43;;;12.50;99.90;;;;;;5033952;28;20045;-63
2022/10/04 08:09:10;;;;;;;20.17;13.23;;;12.70;99.90;;;;;;5033840;28;20177;-62
2022/10/04 08:11:57;;;;;;;18.45;13.82;;;12.40;99.90;;;;;;5033558;28;20100;-65
2022/10/04 08:14:51;;;;;;;21.20;13.32;;;12.70;99.90;;;;;;5033787;28;20072;-64
2022/10/04 08:17:44;;;;;;;21.80;13.38;;;13.10;99.90;;;;;;5032769;28;20124;-64
2022/10/04 08:20:58;;;;;;;19.90;12.55;;;13.80;99.90;;;;;;5034078;28;20462;-64
2022/10/04 08:23:58;;;;;;;15.70;10.70;;;14.40;99.90;;;;;;4937472;29;20109;-65
2022/10/04 08:26:39;;;;;;;17.42;10.18;;;14.50;99.90;;;;;;4937327;29;20051;-63
2022/10/04 08:29:44;;;;;;;20.20;9.95;;;14.60;99.90;;;;;;5009273;28;20049;-65
2022/10/04 08:32:49;;;;;;;18.08;10.38;;;14.90;99.90;;;;;;5032502;28;20090;-65
2022/10/04 08:35:27;;;;;;;16.08;7.60;;;15.00;99.90;;;;;;5031866;28;20048;-64
2022/10/04 08:38:22;;;;;;;20.05;8.30;;;15.40;99.90;;;;;;5030561;28;20103;-65
2022/10/04 08:41:23;;;;;;;15.30;7.35;;;15.90;99.90;;;;;;5032026;28;20047;-64
2022/10/04 08:44:32;;;;;;;12.52;6.22;;;16.00;99.90;;;;;;5000164;28;20491;-64
2022/10/04 08:47:35;;;;;;;11.60;6.53;;;16.30;99.90;;;;;;5032429;28;20120;-64
2022/10/04 08:50:19;;;;;;;10.10;6.55;;;16.30;99.90;;;;;;5028968;28;20073;-64
2022/10/04 08:53:01;;;;;;;10.30;6.18;;;16.20;99.90;;;;;;5030788;28;20033;-64
2022/10/04 08:55:42;;;;;;;12.40;6.60;;;17.10;99.90;;;;;;5030510;28;20046;-64
2022/10/04 08:58:30;;;;;;;12.07;5.93;;;17.30;99.90;;;;;;5029376;28;20087;-64
2022/10/04 09:01:20;;;;;;;10.32;5.93;;;17.20;99.90;;;;;;5031672;28;20055;-64
2022/10/04 09:04:13;;;;;;;8.88;6.35;;;17.00;99.90;;;;;;5031240;28;20057;-63
2022/10/04 09:07:11;;;;;;;9.77;6.28;;;18.00;99.90;;;;;;5032464;28;20095;-65
2022/10/04 09:09:46;;;;;;;10.57;6.70;;;18.00;99.90;;;;;;4977110;28;20052;-64
2022/10/04 09:12:49;;;;;;;12.32;5.78;;;19.20;99.90;;;;;;5030567;28;20099;-64
2022/10/04 09:15:21;;;;;;;12.15;5.47;;;19.50;99.90;;;;;;5029740;28;20589;-66
2022/10/04 09:17:53;;;;;;;15.40;5.45;;;19.50;99.90;;;;;;5031224;28;20057;-64
2022/10/04 09:20:46;;;;;;;9.65;5.60;;;20.00;99.90;;;;;;5025244;28;20132;-65
2022/10/04 09:24:08;;;;;;;9.55;4.70;;;21.10;99.90;;;;;;5030882;28;20037;-64
2022/10/04 09:26:33;;;;;;;11.15;4.72;;;22.10;99.90;;;;;;4935088;29;20406;-65
2022/10/04 09:29:21;;;;;;;9.80;3.90;;;22.90;99.90;;;;;;5024419;28;20045;-65
2022/10/04 09:32:04;;;;;;;8.20;4.20;;;24.20;99.90;;;;;;5029330;28;20037;-64
2022/10/04 09:34:54;;;;;;;9.30;3.80;;;25.40;99.90;;;;;;5031078;28;20128;-64
2022/10/04 09:37:45;;;;;;;7.53;3.53;;;26.50;99.90;;;;;;5030764;28;20077;-64
2022/10/04 09:40:30;;;;;;;9.15;3.75;;;27.20;99.90;;;;;;5030781;28;20041;-65
2022/10/04 09:43:29;;;;;;;9.02;3.20;;;27.20;99.90;;;;;;5030368;28;20045;-65
2022/10/04 09:46:33;;;;;;;6.75;3.83;;;26.80;99.90;;;;;;5031931;28;20029;-65
2022/10/04 09:49:05;;;;;;;9.07;3.60;;;26.60;99.90;;;;;;5032045;28;20385;-64
2022/10/04 09:52:08;;;;;;;6.47;3.15;;;26.10;99.90;;;;;;5031951;28;20044;-64
2022/10/04 09:54:59;;;;;;;7.95;3.22;;;26.10;99.90;;;;;;5018735;28;20056;-64
2022/10/04 09:57:43;;;;;;;6.10;2.75;;;26.40;99.90;;;;;;5030851;28;20037;-64
2022/10/04 10:00:23;;;;;;;6.45;3.15;;;26.50;99.90;;;;;;5031090;28;20088;-63
2022/10/04 10:03:27;;;;;;;8.13;3.72;;;26.80;99.90;;;;;;5029344;28;20049;-64
2022/10/04 10:06:10;;;;;;;7.78;2.78;;;24.60;99.90;;;;;;5030863;28;20037;-63
2022/10/04 10:08:41;;;;;;;9.38;3.03;;;22.90;99.90;;;;;;5030542;28;20037;-64
2022/10/04 10:14:59;;;;;;;6.25;3.35;;;22.00;99.90;;;;;;5029256;28;20049;-63
2022/10/04 10:17:40;;;;;;;8.68;3.35;;;21.10;99.90;;;;;;4985114;28;20054;-64
2022/10/04 10:20:48;;;;;;;6.88;3.85;;;20.20;99.90;;;;;;5012366;28;20034;-65
2022/10/04 10:23:31;;;;;;;8.27;3.75;;;19.40;99.90;;;;;;5011869;28;20049;-64
2022/10/04 10:26:29;;;;;;;7.45;4.18;;;18.50;99.90;;;;;;5006407;28;20443;-63
2022/10/04 10:29:25;;;;;;;7.10;3.78;;;18.30;99.90;;;;;;5012109;28;20037;-65
2022/10/04 10:31:56;;;;;;;10.02;4.75;;;18.10;99.90;;;;;;5012202;28;20416;-63
2022/10/04 10:34:28;;;;;;;9.50;3.90;;;18.00;99.90;;;;;;5011080;28;20131;-63
2022/10/04 10:37:04;;;;;;;9.45;4.10;;;17.80;99.90;;;;;;5012171;28;20137;-64
2022/10/04 10:39:46;;;;;;;9.95;4.57;;;17.30;99.90;;;;;;5011266;28;20042;-63
2022/10/04 10:42:38;;;;;;;9.05;4.82;;;17.50;99.90;;;;;;5010749;28;20049;-65
2022/10/04 10:45:43;;;;;;;8.95;4.28;;;17.40;99.90;;;;;;5011057;28;20392;-64
2022/10/04 10:48:36;;;;;;;8.68;4.70;;;17.20;99.90;;;;;;5000839;28;20044;-63
2022/10/04 10:51:16;;;;;;;7.22;4.40;;;17.20;99.90;;;;;;5010688;28;20048;-65
2022/10/04 10:54:11;;;;;;;9.70;4.05;;;17.40;99.90;;;;;;5005712;28;20034;-63
2022/10/04 10:56:48;;;;;;;10.30;5.40;;;17.40;99.90;;;;;;5006443;28;20492;-65
2022/10/04 10:59:49;;;;;;;9.55;4.85;;;17.40;99.90;;;;;;5000310;28;20084;-64
2022/10/04 11:02:53;;;;;;;11.77;5.68;;;17.10;99.90;;;;;;4995694;28;20386;-65
2022/10/04 11:05:44;;;;;;;6.57;4.57;;;17.00;99.90;;;;;;4947263;29;20553;-64
2022/10/04 11:08:43;;;;;;;9.48;5.03;;;17.00;99.90;;;;;;4933428;29;20047;-63
2022/10/04 11:11:32;;;;;;;13.07;5.72;;;17.00;99.90;;;;;;5003209;28;20060;-62
2022/10/04 11:14:12;;;;;;;12.55;5.82;;;16.90;99.90;;;;;;4995393;28;20385;-63
2022/10/04 11:16:53;;;;;;;11.98;5.05;;;17.00;99.90;;;;;;5013641;28;20072;-63
2022/10/04 11:19:28;;;;;;;9.57;4.75;;;16.90;99.90;;;;;;5011073;28;20420;-64
2022/10/04 11:22:05;;;;;;;;;;;17.00;99.90;;;;;;5017049;28;20116;-65
2022/10/04 11:24:46;;;;;;;10.77;5.13;;;17.10;99.90;;;;;;5029523;28;19932;-64
2022/10/04 11:27:14;;;;;;;11.18;5.97;;;17.00;99.90;;;;;;5031914;28;20368;-64
2022/10/04 11:29:54;;;;;;;10.55;5.35;;;17.10;99.90;;;;;;5026472;28;20514;-64
2022/10/04 11:32:49;;;;;;;11.52;6.20;;;17.00;99.90;;;;;;5033443;28;20069;-64
2022/10/04 11:35:43;;;;;;;11.52;5.68;;;17.00;99.90;;;;;;5028862;28;20050;-63
2022/10/04 11:38:21;;;;;;;11.18;5.60;;;17.00;99.90;;;;;;5032404;28;20064;-64
2022/10/04 11:41:21;;;;;;;8.95;5.50;;;17.10;99.90;;;;;;5033344;28;20052;-63
2022/10/04 11:44:04;;;;;;;10.43;5.53;;;17.10;99.90;;;;;;5032842;28;20053;-65
2022/10/04 11:47:20;;;;;;;12.68;6.05;;;17.20;99.90;;;;;;5033738;28;20052;-63
2022/10/04 11:50:20;;;;;;;9.38;5.03;;;17.30;99.90;;;;;;4922607;29;20054;-65
2022/10/04 11:53:24;;;;;;;9.95;5.78;;;17.30;99.90;;;;;;4938037;29;20047;-64
2022/10/04 11:56:18;;;;;;;11.30;4.93;;;17.30;99.90;;;;;;5030027;28;20052;-63
2022/10/04 11:58:51;;;;;;;14.95;6.00;;;17.20;99.90;;;;;;5033861;28;20038;-64
2022/10/04 12:01:37;;;;;;;9.40;5.72;;;17.20;99.90;;;;;;5031560;28;20038;-63
2022/10/04 12:04:38;;;;;;;9.43;5.97;;;17.20;99.90;;;;;;5032492;28;20392;-63
2022/10/04 12:07:22;;;;;;;10.52;5.18;;;17.10;99.90;;;;;;5025410;28;20041;-63
2022/10/04 12:09:49;;;;;;;7.25;4.78;;;17.00;99.90;;;;;;5034270;28;20117;-64
2022/10/04 12:12:43;;;;;;;10.10;5.32;;;17.00;99.90;;;;;;5032918;28;20041;-63
2022/10/04 12:15:39;;;;;;;7.60;4.40;;;17.10;99.90;;;;;;5026396;28;20108;-64
2022/10/04 12:18:40;;;;;;;11.07;5.88;;;17.10;99.90;;;;;;5028809;28;20372;-65
2022/10/04 12:21:39;;;;;;;7.72;4.50;;;17.10;99.90;;;;;;5013051;28;20044;-64
2022/10/04 12:24:26;;;;;;;11.07;5.80;;;17.30;99.90;;;;;;5027755;28;20038;-63
2022/10/04 12:27:08;;;;;;;11.00;6.05;;;17.30;99.90;;;;;;5031805;28;20045;-65
2022/10/04 12:30:02;;;;;;;8.60;4.72;;;17.30;99.90;;;;;;5023938;28;20048;-64
2022/10/04 12:32:53;;;;;;;9.02;4.82;;;17.20;99.90;;;;;;5028517;28;20522;-66
2022/10/04 12:35:33;;;;;;;12.07;5.03;;;17.20;99.90;;;;;;5033859;28;20061;-65
2022/10/04 12:38:09;;;;;;;7.97;4.55;;;17.40;99.90;;;;;;5032695;28;20481;-65
2022/10/04 12:41:03;;;;;;;7.97;5.20;;;17.60;99.90;;;;;;5032999;28;20561;-64
2022/10/04 12:43:59;;;;;;;9.98;4.35;;;17.60;99.90;;;;;;5032868;28;20455;-64
2022/10/04 12:46:54;;;;;;;8.50;5.03;;;17.40;99.90;;;;;;5032148;28;20083;-65
2022/10/04 12:50:00;;;;;;;7.53;4.80;;;17.50;99.90;;;;;;5017096;28;20033;-65
2022/10/04 12:52:37;;;;;;;12.55;5.40;;;17.50;99.90;;;;;;4962570;28;20058;-66
2022/10/04 12:55:19;;;;;;;9.27;5.13;;;17.60;99.90;;;;;;5033936;28;20100;-67
2022/10/04 12:57:52;;;;;;;13.02;6.13;;;17.60;99.90;;;;;;5031410;28;20038;-64
2022/10/04 13:00:30;;;;;;;8.23;5.78;;;17.70;99.90;;;;;;5032553;28;20116;-65
2022/10/04 13:03:13;;;;;;;9.32;5.15;;;17.50;99.90;;;;;;5032264;28;20119;-66
2022/10/04 13:05:48;;;;;;;12.43;6.20;;;17.70;99.90;;;;;;5032633;28;20095;-65
2022/10/04 13:08:47;;;;;;;12.07;5.07;;;17.60;99.90;;;;;;5032508;28;20047;-66
2022/10/04 13:11:45;;;;;;;10.55;4.07;;;17.40;99.90;;;;;;4992621;28;20091;-65
2022/10/04 13:14:26;;;;;;;8.18;3.88;;;17.40;99.90;;;;;;5033176;28;20049;-65
2022/10/04 13:17:23;;;;;;;12.30;4.80;;;17.20;99.90;;;;;;5024493;28;20407;-65
2022/10/04 13:20:18;;;;;;;9.88;4.85;;;17.20;99.90;;;;;;5034031;28;20045;-66
2022/10/04 13:23:10;;;;;;;8.60;4.22;;;17.50;99.90;;;;;;5028834;28;20471;-66
2022/10/04 13:26:14;;;;;;;6.80;4.10;;;17.10;99.90;;;;;;5032404;28;20492;-66
2022/10/04 13:29:11;;;;;;;10.57;4.65;;;17.20;99.90;;;;;;4967431;28;20405;-66
2022/10/04 13:31:52;;;;;;;8.38;4.47;;;17.50;99.90;;;;;;5023917;28;20124;-65
2022/10/04 13:34:26;;;;;;;9.48;4.00;;;17.50;99.90;;;;;;5029197;28;20051;-66
2022/10/04 13:37:29;;;;;;;8.77;3.53;;;17.50;99.90;;;;;;5012217;28;20491;-66
2022/10/04 13:40:07;;;;;;;11.50;4.07;;;17.40;99.90;;;;;;5028858;28;20053;-66
2022/10/04 13:42:47;;;;;;;7.75;3.72;;;17.50;99.90;;;;;;5015821;28;20410;-66
2022/10/04 13:45:19;;;;;;;8.30;3.47;;;17.50;99.90;;;;;;5030061;28;20525;-65
2022/10/04 13:48:10;;;;;;;5.45;3.30;;;17.70;99.90;;;;;;5030115;28;20128;-65
2022/10/04 13:50:42;;;;;;;7.38;2.58;;;17.40;99.90;;;;;;5029487;28;20038;-65
2022/10/04 13:56:38;;;;;;;;;;;17.50;99.90;;;;;;5030671;28;20148;-65
2022/10/04 13:59:08;;;;;;;5.93;2.40;;;17.40;99.90;;;;;;5029980;28;20330;-65
2022/10/04 14:02:03;;;;;;;10.88;2.97;;;17.30;99.90;;;;;;5031347;28;20372;-65